Time;durP1;ratioP1;P1;durP2;ratioP2;P2;SDS_P1;SDS_P2;PMS_P1;PMS_P2;Temp;Humidity;BMP_temperature;BMP_pressure;BME280_temperature;BME280_humidity;BME280_pressure;Samples;Min_cycle;Max_cycle;Signal;HPM_P1;HPM_P2
2022/03/11 00:02:14;;;;;;;18.73;10.15;;;-13.10;99.90;;;;;;4392077;32;20107;-62
2022/03/11 00:04:40;;;;;;;16.00;8.18;;;-13.20;99.90;;;;;;4392224;32;20160;-61
2022/03/11 00:07:08;;;;;;;12.93;6.60;;;-13.20;99.90;;;;;;4393122;32;20459;-62
2022/03/11 00:09:35;;;;;;;10.05;6.12;;;-13.20;99.90;;;;;;4392942;32;20085;-62
2022/03/11 00:12:02;;;;;;;14.35;7.22;;;-13.10;99.90;;;;;;4393216;32;20101;-62
2022/03/11 00:14:28;;;;;;;11.35;6.90;;;-13.20;99.90;;;;;;4391925;32;20073;-61
2022/03/11 00:16:54;;;;;;;10.60;6.50;;;-13.30;99.90;;;;;;4393423;32;20073;-62
2022/03/11 00:19:21;;;;;;;10.77;6.30;;;-13.30;99.90;;;;;;4393433;32;20101;-62
2022/03/11 00:21:47;;;;;;;10.40;6.05;;;-13.30;99.90;;;;;;4391760;32;20082;-62
2022/03/11 00:24:13;;;;;;;8.73;5.65;;;-13.30;99.90;;;;;;4391372;32;20066;-62
2022/03/11 00:26:40;;;;;;;9.45;5.25;;;-13.30;99.90;;;;;;4392952;32;20504;-61
2022/03/11 00:29:06;;;;;;;9.13;5.57;;;-13.30;99.90;;;;;;4379614;32;20443;-61
2022/03/11 00:31:46;;;;;;;10.03;5.77;;;-13.30;99.90;;;;;;3857446;37;20058;-62
2022/03/11 00:34:13;;;;;;;7.87;5.00;;;-13.20;99.90;;;;;;4419936;32;20176;-61
2022/03/11 00:36:40;;;;;;;9.63;5.28;;;-13.20;99.90;;;;;;4420037;32;20112;-61
2022/03/11 00:39:06;;;;;;;7.50;5.30;;;-13.20;99.90;;;;;;4420235;32;20082;-62
2022/03/11 00:41:32;;;;;;;9.38;5.05;;;-13.30;99.90;;;;;;4419919;32;20081;-62
2022/03/11 00:43:59;;;;;;;8.75;5.50;;;-13.30;99.90;;;;;;4419481;32;20085;-61
2022/03/11 00:46:25;;;;;;;8.50;5.15;;;-13.20;99.90;;;;;;4419701;32;20074;-62
2022/03/11 00:48:52;;;;;;;7.90;5.22;;;-13.20;99.90;;;;;;4419867;32;20088;-61
2022/03/11 00:51:18;;;;;;;9.75;4.78;;;-13.30;99.90;;;;;;4419712;32;20092;-62
2022/03/11 00:53:44;;;;;;;9.00;4.97;;;-13.30;99.90;;;;;;4418553;32;20083;-62
2022/03/11 00:56:10;;;;;;;8.57;5.30;;;-13.30;99.90;;;;;;4419715;32;20074;-62
2022/03/11 00:58:37;;;;;;;8.48;5.35;;;-13.30;99.90;;;;;;4419532;32;20077;-61
2022/03/11 01:01:04;;;;;;;10.05;5.82;;;-13.30;99.90;;;;;;4419078;32;20077;-61
2022/03/11 01:03:30;;;;;;;8.35;4.65;;;-13.30;99.90;;;;;;4402988;32;20085;-63
2022/03/11 01:05:56;;;;;;;8.02;4.80;;;-13.40;99.90;;;;;;4402846;32;20525;-62
2022/03/11 01:08:23;;;;;;;9.95;5.43;;;-13.40;99.90;;;;;;4404524;32;20084;-61
2022/03/11 01:10:49;;;;;;;9.63;5.18;;;-13.40;99.90;;;;;;4404678;32;20184;-62
2022/03/11 01:13:15;;;;;;;8.88;5.60;;;-13.40;99.90;;;;;;4406359;32;20089;-61
2022/03/11 01:15:42;;;;;;;9.57;5.25;;;-13.40;99.90;;;;;;4413597;32;20142;-61
2022/03/11 01:18:08;;;;;;;9.52;5.60;;;-13.40;99.90;;;;;;4414446;32;20083;-61
2022/03/11 01:20:34;;;;;;;8.05;4.82;;;-13.40;99.90;;;;;;4413504;32;20508;-67
2022/03/11 01:23:01;;;;;;;9.27;5.85;;;-13.50;99.90;;;;;;4404447;32;20507;-61
2022/03/11 01:25:27;;;;;;;9.80;5.72;;;-13.50;99.90;;;;;;4403015;32;20103;-61
2022/03/11 01:27:53;;;;;;;9.13;5.07;;;-13.40;99.90;;;;;;4404029;32;20092;-63
2022/03/11 01:30:20;;;;;;;9.07;5.25;;;-13.50;99.90;;;;;;4403353;32;20194;-62
2022/03/11 01:32:46;;;;;;;7.95;4.85;;;-13.50;99.90;;;;;;4402399;32;20077;-61
2022/03/11 01:35:12;;;;;;;7.87;5.40;;;-13.50;99.90;;;;;;4402202;32;20497;-62
2022/03/11 01:37:39;;;;;;;11.60;5.45;;;-13.50;99.90;;;;;;4403585;32;20471;-61
2022/03/11 01:40:06;;;;;;;9.32;5.68;;;-13.60;99.90;;;;;;4403485;32;20089;-62
2022/03/11 01:42:34;;;;;;;9.18;4.97;;;-13.70;99.90;;;;;;4396354;32;20482;-61
2022/03/11 01:45:01;;;;;;;7.82;5.10;;;-13.60;99.90;;;;;;4393971;32;20074;-61
2022/03/11 01:47:28;;;;;;;8.85;5.50;;;-13.60;99.90;;;;;;4392051;32;20108;-61
2022/03/11 01:49:54;;;;;;;8.95;5.87;;;-13.60;99.90;;;;;;4393432;32;20116;-62
2022/03/11 01:52:21;;;;;;;8.60;5.32;;;-13.60;99.90;;;;;;4393561;32;20089;-62
2022/03/11 01:54:49;;;;;;;10.98;5.95;;;-13.60;99.90;;;;;;4392078;32;20073;-61
2022/03/11 01:57:16;;;;;;;8.45;5.75;;;-13.70;99.90;;;;;;4393558;32;20093;-62
2022/03/11 01:59:43;;;;;;;10.05;6.35;;;-13.60;99.90;;;;;;4393326;32;20081;-62
2022/03/11 02:02:10;;;;;;;11.55;6.30;;;-13.60;99.90;;;;;;4393263;32;20095;-62
2022/03/11 02:04:36;;;;;;;8.10;5.57;;;-13.70;99.90;;;;;;4393249;32;20091;-61
2022/03/11 02:07:04;;;;;;;8.90;6.37;;;-13.70;99.90;;;;;;4393279;32;20152;-62
2022/03/11 02:09:31;;;;;;;11.00;5.70;;;-13.70;99.90;;;;;;4393187;32;20073;-61
2022/03/11 02:11:58;;;;;;;8.43;5.50;;;-13.70;99.90;;;;;;4379450;32;20168;-61
2022/03/11 02:14:24;;;;;;;11.20;5.80;;;-13.80;99.90;;;;;;4393316;32;20168;-61
2022/03/11 02:16:50;;;;;;;11.07;5.62;;;-13.80;99.90;;;;;;4393483;32;20156;-61
2022/03/11 02:19:17;;;;;;;9.23;5.62;;;-13.70;99.90;;;;;;4393179;32;20513;-61
2022/03/11 02:21:48;;;;;;;9.93;5.50;;;-13.80;99.90;;;;;;4391663;32;20163;-62
2022/03/11 02:24:15;;;;;;;10.52;6.18;;;-13.80;99.90;;;;;;4393098;32;20077;-61
2022/03/11 02:26:42;;;;;;;9.10;5.62;;;-13.80;99.90;;;;;;4391616;32;20077;-61
2022/03/11 02:29:08;;;;;;;10.75;5.85;;;-13.90;99.90;;;;;;4393136;32;20078;-62
2022/03/11 02:31:35;;;;;;;9.63;5.50;;;-13.90;99.90;;;;;;4391036;32;20074;-62
2022/03/11 02:34:04;;;;;;;9.15;5.30;;;-13.90;99.90;;;;;;4403901;32;20062;-62
2022/03/11 02:36:31;;;;;;;9.15;6.20;;;-13.90;99.90;;;;;;4391400;32;20103;-61
2022/03/11 02:38:57;;;;;;;10.23;5.65;;;-14.00;99.90;;;;;;4392720;32;20523;-62
2022/03/11 02:41:24;;;;;;;8.68;5.53;;;-13.90;99.90;;;;;;4391183;32;20166;-61
2022/03/11 02:43:50;;;;;;;8.32;5.55;;;-13.90;99.90;;;;;;4392929;32;20081;-62
2022/03/11 02:46:17;;;;;;;8.18;5.10;;;-13.90;99.90;;;;;;4392557;32;20165;-62
2022/03/11 02:48:43;;;;;;;10.75;5.70;;;-13.90;99.90;;;;;;4391404;32;20073;-62
2022/03/11 02:51:10;;;;;;;10.95;6.10;;;-14.00;99.90;;;;;;4391259;32;20103;-61
2022/03/11 02:53:40;;;;;;;9.63;5.05;;;-14.00;99.90;;;;;;4391716;32;20078;-61
2022/03/11 02:56:08;;;;;;;12.30;6.00;;;-14.00;99.90;;;;;;4391931;32;20096;-61
2022/03/11 02:58:36;;;;;;;9.55;5.60;;;-14.00;99.90;;;;;;4392488;32;20085;-63
2022/03/11 03:01:03;;;;;;;10.45;5.57;;;-14.10;99.90;;;;;;4392300;32;20535;-62
2022/03/11 03:03:30;;;;;;;7.97;5.40;;;-14.10;99.90;;;;;;4391612;32;20080;-62
2022/03/11 03:05:56;;;;;;;10.10;5.60;;;-14.20;99.90;;;;;;4390712;32;20545;-61
2022/03/11 03:08:22;;;;;;;11.10;5.90;;;-14.20;99.90;;;;;;4391093;32;20158;-62
2022/03/11 03:10:49;;;;;;;11.40;5.90;;;-14.20;99.90;;;;;;4378357;32;20085;-63
2022/03/11 03:13:15;;;;;;;7.65;4.95;;;-14.30;99.90;;;;;;4392242;32;20083;-60
2022/03/11 03:15:41;;;;;;;10.05;6.12;;;-14.20;99.90;;;;;;4390833;32;20069;-62
2022/03/11 03:18:08;;;;;;;11.40;5.55;;;-14.20;99.90;;;;;;4392177;32;20174;-61
2022/03/11 03:20:34;;;;;;;9.43;5.60;;;-14.20;99.90;;;;;;4392184;32;20153;-60
2022/03/11 03:23:00;;;;;;;9.07;5.65;;;-14.20;99.90;;;;;;4378051;32;20539;-63
2022/03/11 03:25:27;;;;;;;11.02;5.82;;;-14.20;99.90;;;;;;4390680;32;20077;-62
2022/03/11 03:27:53;;;;;;;12.15;5.45;;;-14.30;99.90;;;;;;4390683;32;20078;-62
2022/03/11 03:30:19;;;;;;;10.60;6.07;;;-14.30;99.90;;;;;;4377856;32;20183;-61
2022/03/11 03:32:46;;;;;;;8.57;5.00;;;-14.30;99.90;;;;;;4390499;32;20189;-62
2022/03/11 03:35:12;;;;;;;7.85;5.43;;;-14.30;99.90;;;;;;4390549;32;20146;-62
2022/03/11 03:37:39;;;;;;;8.85;5.40;;;-14.30;99.90;;;;;;4390891;32;20093;-61
2022/03/11 03:40:08;;;;;;;8.55;5.45;;;-14.30;99.90;;;;;;4391826;32;20069;-61
2022/03/11 03:42:34;;;;;;;10.82;5.87;;;-14.30;99.90;;;;;;4377970;32;20085;-61
2022/03/11 03:45:06;;;;;;;8.80;5.65;;;-14.40;99.90;;;;;;4390477;32;20065;-61
2022/03/11 03:47:32;;;;;;;10.02;5.87;;;-14.40;99.90;;;;;;4391790;32;20076;-62
2022/03/11 03:49:59;;;;;;;12.52;6.10;;;-14.40;99.90;;;;;;4390587;32;20081;-62
2022/03/11 03:52:27;;;;;;;11.20;5.97;;;-14.30;99.90;;;;;;4392100;32;20092;-62
2022/03/11 03:54:54;;;;;;;9.60;5.80;;;-14.40;99.90;;;;;;4390146;32;20086;-60
2022/03/11 03:57:20;;;;;;;10.50;6.57;;;-14.40;99.90;;;;;;4390170;32;20508;-61
2022/03/11 03:59:47;;;;;;;10.05;5.10;;;-14.40;99.90;;;;;;4391428;32;20433;-61
2022/03/11 04:02:13;;;;;;;9.27;5.22;;;-14.40;99.90;;;;;;4391507;32;20088;-62
2022/03/11 04:04:39;;;;;;;10.85;5.57;;;-14.30;99.90;;;;;;4377703;32;20078;-61
2022/03/11 04:07:06;;;;;;;8.75;5.68;;;-14.30;99.90;;;;;;4390471;32;20085;-61
2022/03/11 04:09:32;;;;;;;11.55;6.30;;;-14.40;99.90;;;;;;4392139;32;20070;-61
2022/03/11 04:11:58;;;;;;;12.27;5.97;;;-14.40;99.90;;;;;;4377725;32;20073;-61
2022/03/11 04:14:25;;;;;;;8.73;5.28;;;-14.50;99.90;;;;;;4377388;32;20093;-62
2022/03/11 04:16:51;;;;;;;9.55;5.62;;;-14.40;99.90;;;;;;4391366;32;20059;-61
2022/03/11 04:19:17;;;;;;;8.88;5.00;;;-14.30;99.90;;;;;;4377955;32;20448;-61
2022/03/11 04:21:44;;;;;;;9.43;5.32;;;-14.30;99.90;;;;;;4390117;32;20456;-61
2022/03/11 04:24:14;;;;;;;9.93;5.45;;;-14.30;99.90;;;;;;4391468;32;20076;-61
2022/03/11 04:26:43;;;;;;;9.10;5.62;;;-14.30;99.90;;;;;;4391765;32;20146;-61
2022/03/11 04:29:10;;;;;;;9.13;6.60;;;-14.20;99.90;;;;;;4390442;32;20212;-61
2022/03/11 04:31:37;;;;;;;8.70;5.57;;;-14.20;99.90;;;;;;4390984;32;20089;-62
2022/03/11 04:34:04;;;;;;;12.77;6.22;;;-14.10;99.90;;;;;;4391313;32;20181;-61
2022/03/11 04:36:33;;;;;;;10.48;6.20;;;-13.90;99.90;;;;;;4390712;32;20100;-61
2022/03/11 04:39:00;;;;;;;11.32;6.70;;;-14.00;99.90;;;;;;4390455;32;20085;-61
2022/03/11 04:41:27;;;;;;;12.20;6.62;;;-13.90;99.90;;;;;;4391273;32;20081;-62
2022/03/11 04:43:53;;;;;;;11.57;6.15;;;-13.90;99.90;;;;;;4389825;32;20459;-60
2022/03/11 04:46:20;;;;;;;13.32;6.53;;;-13.70;99.90;;;;;;4389751;32;20471;-60
2022/03/11 04:48:47;;;;;;;13.35;6.05;;;-13.70;99.90;;;;;;4391113;32;20145;-62
2022/03/11 04:51:14;;;;;;;10.88;6.28;;;-13.70;99.90;;;;;;4391112;32;20077;-62
2022/03/11 04:53:41;;;;;;;12.23;6.45;;;-13.60;99.90;;;;;;4364575;32;20540;-61
2022/03/11 04:56:07;;;;;;;12.77;6.97;;;-13.60;99.90;;;;;;4390194;32;20103;-61
2022/03/11 04:58:33;;;;;;;10.43;6.25;;;-13.60;99.90;;;;;;4389987;32;20161;-62
2022/03/11 05:01:00;;;;;;;11.80;6.30;;;-13.50;99.90;;;;;;4391163;32;20078;-62
2022/03/11 05:03:26;;;;;;;11.95;6.78;;;-13.50;99.90;;;;;;4391406;32;20161;-61
2022/03/11 05:05:53;;;;;;;9.88;6.50;;;-13.40;99.90;;;;;;4391254;32;20078;-62
2022/03/11 05:08:19;;;;;;;12.02;6.28;;;-13.60;99.90;;;;;;4391228;32;20078;-61
2022/03/11 05:10:45;;;;;;;9.20;6.22;;;-13.50;99.90;;;;;;4390844;32;20081;-62
2022/03/11 05:13:11;;;;;;;9.18;5.78;;;-13.50;99.90;;;;;;4390847;32;20081;-62
2022/03/11 05:15:38;;;;;;;11.75;6.20;;;-13.40;99.90;;;;;;4391406;32;20074;-62
2022/03/11 05:18:05;;;;;;;9.65;5.93;;;-13.30;99.90;;;;;;4391977;32;20163;-61
2022/03/11 05:20:32;;;;;;;9.70;6.25;;;-13.30;99.90;;;;;;4393845;32;20445;-61
2022/03/11 05:22:58;;;;;;;9.35;5.82;;;-12.30;99.90;;;;;;4393823;32;20503;-60
2022/03/11 05:25:24;;;;;;;12.02;6.97;;;-12.00;99.90;;;;;;4392993;32;20125;-62
2022/03/11 05:27:51;;;;;;;11.07;6.37;;;-12.20;99.90;;;;;;4394390;32;20081;-62
2022/03/11 05:30:18;;;;;;;13.18;6.18;;;-11.90;99.90;;;;;;4391914;32;20080;-61
2022/03/11 05:32:46;;;;;;;9.93;6.78;;;-11.90;99.90;;;;;;4393828;32;20073;-61
2022/03/11 05:35:15;;;;;;;10.43;5.87;;;-11.70;99.90;;;;;;4393737;32;20089;-62
2022/03/11 05:37:42;;;;;;;10.18;6.03;;;-11.50;99.90;;;;;;4379705;32;20101;-62
2022/03/11 05:40:09;;;;;;;10.98;6.18;;;-11.90;99.90;;;;;;4392810;32;20161;-62
2022/03/11 05:42:35;;;;;;;9.50;6.30;;;-11.30;99.90;;;;;;4392225;32;20101;-61
2022/03/11 05:45:03;;;;;;;11.75;6.20;;;-11.40;99.90;;;;;;4394236;32;20114;-61
2022/03/11 05:47:30;;;;;;;9.20;5.68;;;-11.50;99.90;;;;;;4394759;32;20085;-61
2022/03/11 05:49:56;;;;;;;10.30;6.07;;;-11.20;99.90;;;;;;4395811;32;20074;-62
2022/03/11 05:52:23;;;;;;;10.68;6.37;;;-11.40;99.90;;;;;;4395196;32;20081;-62
2022/03/11 05:54:49;;;;;;;11.90;6.93;;;-11.30;99.90;;;;;;4395344;32;20072;-62
2022/03/11 05:57:16;;;;;;;11.38;6.78;;;-11.40;99.90;;;;;;4396209;32;20140;-62
2022/03/11 05:59:42;;;;;;;12.48;7.05;;;-11.10;99.90;;;;;;4383884;32;20081;-60
2022/03/11 06:02:08;;;;;;;9.52;5.72;;;-10.90;99.90;;;;;;4384196;32;20077;-61
2022/03/11 06:04:36;;;;;;;11.43;6.95;;;-10.90;99.90;;;;;;4397666;32;20099;-61
2022/03/11 06:07:03;;;;;;;9.18;6.28;;;-11.00;99.90;;;;;;4399527;32;20066;-61
2022/03/11 06:09:30;;;;;;;10.45;6.18;;;-11.10;99.90;;;;;;4410093;32;20082;-61
2022/03/11 06:11:56;;;;;;;10.88;6.45;;;-11.40;99.90;;;;;;4383799;32;20157;-62
2022/03/11 06:14:23;;;;;;;12.40;7.57;;;-11.00;99.90;;;;;;4399430;32;20146;-61
2022/03/11 06:16:49;;;;;;;11.10;6.40;;;-11.40;99.90;;;;;;4399616;32;20166;-61
2022/03/11 06:19:15;;;;;;;14.45;7.68;;;-11.20;99.90;;;;;;4397490;32;20436;-61
2022/03/11 06:21:42;;;;;;;10.40;6.47;;;-11.60;99.90;;;;;;4382041;32;20092;-61
2022/03/11 06:24:08;;;;;;;3.20;2.37;;;-12.10;99.90;;;;;;4382948;32;20140;-60
2022/03/11 06:26:35;;;;;;;14.90;7.00;;;-12.00;99.90;;;;;;4397308;32;20147;-62
2022/03/11 06:29:01;;;;;;;12.88;7.10;;;-12.10;99.90;;;;;;4380677;32;20223;-61
2022/03/11 06:31:27;;;;;;;14.25;7.30;;;-11.80;99.90;;;;;;4392899;32;20165;-61
2022/03/11 06:33:54;;;;;;;1.77;1.33;;;-11.70;99.90;;;;;;4398724;32;20069;-62
2022/03/11 06:36:21;;;;;;;6.15;4.10;;;-11.90;99.90;;;;;;4391892;32;20097;-61
2022/03/11 06:38:47;;;;;;;8.63;4.93;;;-11.90;99.90;;;;;;4391797;32;20516;-61
2022/03/11 06:41:13;;;;;;;14.40;7.70;;;-11.80;99.90;;;;;;4378796;32;20092;-60
2022/03/11 06:43:41;;;;;;;11.50;8.05;;;-11.80;99.90;;;;;;4378738;32;20175;-61
2022/03/11 06:46:07;;;;;;;11.57;6.80;;;-11.90;99.90;;;;;;4391179;32;20070;-61
2022/03/11 06:48:34;;;;;;;11.15;6.93;;;-11.80;99.90;;;;;;4392477;32;20102;-60
2022/03/11 06:51:04;;;;;;;9.35;6.18;;;-11.60;99.90;;;;;;4391390;32;20091;-62
2022/03/11 06:53:32;;;;;;;10.52;6.90;;;-11.40;99.90;;;;;;4379222;32;20088;-60
2022/03/11 06:56:00;;;;;;;10.68;5.95;;;-11.60;99.90;;;;;;4392610;32;20158;-62
2022/03/11 06:58:28;;;;;;;9.27;6.00;;;-11.60;99.90;;;;;;4379037;32;20070;-60
2022/03/11 07:00:55;;;;;;;12.23;7.07;;;-11.60;99.90;;;;;;4391458;32;20061;-61
2022/03/11 07:03:21;;;;;;;13.27;7.12;;;-11.50;99.90;;;;;;4392452;32;20463;-61
2022/03/11 07:05:47;;;;;;;13.73;7.82;;;-11.50;99.90;;;;;;4390959;32;20161;-61
2022/03/11 07:08:14;;;;;;;14.05;7.18;;;-11.50;99.90;;;;;;4391014;32;20070;-62
2022/03/11 07:10:40;;;;;;;10.57;6.47;;;-11.60;99.90;;;;;;4390448;32;20214;-60
2022/03/11 07:13:06;;;;;;;12.15;7.60;;;-11.40;99.90;;;;;;4392456;32;20148;-61
2022/03/11 07:15:33;;;;;;;12.00;6.72;;;-11.30;99.90;;;;;;4390498;32;20506;-62
2022/03/11 07:18:00;;;;;;;13.70;7.37;;;-11.30;99.90;;;;;;4390653;32;20162;-61
2022/03/11 07:20:26;;;;;;;11.07;6.32;;;-11.20;99.90;;;;;;4390698;32;20090;-61
2022/03/11 07:22:52;;;;;;;10.48;6.57;;;-11.20;99.90;;;;;;4390528;32;20173;-64
2022/03/11 07:25:19;;;;;;;13.02;7.37;;;-11.50;99.90;;;;;;4390490;32;20077;-63
2022/03/11 07:27:45;;;;;;;11.30;6.82;;;-11.30;99.90;;;;;;4391882;32;20073;-61
2022/03/11 07:30:12;;;;;;;11.98;7.15;;;-11.20;99.90;;;;;;4391299;32;20516;-62
2022/03/11 07:32:40;;;;;;;11.12;7.47;;;-11.40;99.90;;;;;;4390321;32;20173;-61
2022/03/11 07:35:09;;;;;;;13.15;7.65;;;-11.40;99.90;;;;;;4365474;32;20080;-61
2022/03/11 07:37:36;;;;;;;9.48;6.15;;;-11.10;99.90;;;;;;4377765;32;20085;-61
2022/03/11 07:40:04;;;;;;;11.98;6.43;;;-11.10;99.90;;;;;;4389926;32;20521;-60
2022/03/11 07:42:31;;;;;;;11.07;6.25;;;-11.00;99.90;;;;;;4377934;32;20214;-61
2022/03/11 07:44:57;;;;;;;11.00;6.68;;;-11.10;99.90;;;;;;4390365;32;20081;-61
2022/03/11 07:47:23;;;;;;;9.35;6.62;;;-11.00;99.90;;;;;;4391858;32;20157;-61
2022/03/11 07:49:50;;;;;;;8.82;5.87;;;-10.80;99.90;;;;;;4377750;32;20162;-61
2022/03/11 07:52:17;;;;;;;10.18;6.18;;;-10.90;99.90;;;;;;4391502;32;20078;-60
2022/03/11 07:54:44;;;;;;;12.57;8.13;;;-10.60;99.90;;;;;;4377827;32;20077;-61
2022/03/11 07:57:11;;;;;;;10.13;6.57;;;-10.90;99.90;;;;;;4377323;32;20105;-61
2022/03/11 07:59:40;;;;;;;14.90;8.02;;;-10.70;99.90;;;;;;4391572;32;20076;-60
2022/03/11 08:02:07;;;;;;;11.52;7.65;;;-10.70;99.90;;;;;;4378016;32;20075;-61
2022/03/11 08:04:34;;;;;;;11.23;6.90;;;-10.60;99.90;;;;;;4391771;32;20093;-61
2022/03/11 08:07:06;;;;;;;11.10;7.12;;;-10.50;99.90;;;;;;4389969;32;20153;-61
2022/03/11 08:09:36;;;;;;;12.05;7.37;;;-10.60;99.90;;;;;;4391414;32;20504;-61
2022/03/11 08:12:06;;;;;;;11.88;7.45;;;-10.30;99.90;;;;;;4391304;32;20094;-62
2022/03/11 08:14:32;;;;;;;10.45;6.32;;;-10.50;99.90;;;;;;4391241;32;20562;-61
2022/03/11 08:16:58;;;;;;;9.88;7.12;;;-10.30;99.90;;;;;;4391815;32;20082;-61
2022/03/11 08:19:25;;;;;;;9.05;6.45;;;-10.30;99.90;;;;;;4391553;32;20085;-61
2022/03/11 08:21:52;;;;;;;10.00;6.32;;;-10.20;99.90;;;;;;4391429;32;20522;-61
2022/03/11 08:24:19;;;;;;;11.52;6.43;;;-10.20;99.90;;;;;;4389640;32;20450;-61
2022/03/11 08:26:47;;;;;;;9.85;5.80;;;-10.10;99.90;;;;;;4377930;32;20154;-62
2022/03/11 08:29:15;;;;;;;10.57;5.65;;;-10.10;99.90;;;;;;4391589;32;20077;-61
2022/03/11 08:31:41;;;;;;;9.82;5.18;;;-9.80;99.90;;;;;;4391160;32;20126;-62
2022/03/11 08:34:08;;;;;;;11.10;6.20;;;-9.80;99.90;;;;;;4389935;32;20074;-63
2022/03/11 08:36:35;;;;;;;10.75;6.53;;;-9.50;99.90;;;;;;4377255;32;20100;-61
2022/03/11 08:39:01;;;;;;;10.63;6.85;;;-10.10;99.90;;;;;;4390029;32;20089;-61
2022/03/11 08:41:30;;;;;;;10.55;7.62;;;-9.80;99.90;;;;;;4391308;32;20074;-61
2022/03/11 08:43:56;;;;;;;11.27;7.12;;;-9.70;99.90;;;;;;4377538;32;20128;-62
2022/03/11 08:46:22;;;;;;;10.43;6.50;;;-9.80;99.90;;;;;;4391353;32;20069;-61
2022/03/11 08:48:49;;;;;;;13.80;7.25;;;-9.70;99.90;;;;;;4391107;32;20557;-61
2022/03/11 08:51:15;;;;;;;9.75;7.25;;;-9.40;99.90;;;;;;4391362;32;20506;-60
2022/03/11 08:53:42;;;;;;;8.80;6.07;;;-9.80;99.90;;;;;;4393116;32;20181;-60
2022/03/11 08:56:08;;;;;;;9.52;6.47;;;-9.60;99.90;;;;;;4380372;32;20175;-61
2022/03/11 08:58:35;;;;;;;11.25;6.97;;;-9.60;99.90;;;;;;4392586;32;20597;-61
2022/03/11 09:01:01;;;;;;;14.15;6.82;;;-9.60;99.90;;;;;;4394505;32;20153;-61
2022/03/11 09:03:28;;;;;;;11.35;6.70;;;-9.50;99.90;;;;;;4392688;32;20093;-61
2022/03/11 09:05:54;;;;;;;11.18;7.82;;;-9.40;99.90;;;;;;4367781;32;20093;-62
2022/03/11 09:08:21;;;;;;;14.07;7.87;;;-9.50;99.90;;;;;;4392720;32;20228;-61
2022/03/11 09:10:47;;;;;;;14.68;6.57;;;-9.30;99.90;;;;;;4379706;32;20066;-61
2022/03/11 09:13:14;;;;;;;12.55;7.87;;;-9.20;99.90;;;;;;4367565;32;20100;-60
2022/03/11 09:15:40;;;;;;;11.40;7.00;;;-9.20;99.90;;;;;;4380196;32;20093;-61
2022/03/11 09:18:06;;;;;;;11.57;7.53;;;-9.20;99.90;;;;;;4392783;32;20090;-61
2022/03/11 09:20:34;;;;;;;12.20;6.55;;;-9.10;99.90;;;;;;4393786;32;20076;-61
2022/03/11 09:23:02;;;;;;;12.27;6.25;;;-9.50;99.90;;;;;;4392444;32;20166;-61
2022/03/11 09:25:29;;;;;;;10.93;6.75;;;-9.00;99.90;;;;;;4392549;32;20166;-61
2022/03/11 09:27:55;;;;;;;10.68;6.50;;;-9.20;99.90;;;;;;4393890;32;20154;-61
2022/03/11 09:30:21;;;;;;;11.95;7.65;;;-8.70;99.90;;;;;;4392084;32;20082;-61
2022/03/11 09:32:47;;;;;;;14.60;7.80;;;-9.00;99.90;;;;;;4394321;32;20156;-61
2022/03/11 09:35:15;;;;;;;13.40;7.65;;;-8.90;99.90;;;;;;4393521;32;20085;-61
2022/03/11 09:37:42;;;;;;;13.30;8.63;;;-8.80;99.90;;;;;;4399868;32;20150;-60
2022/03/11 09:40:10;;;;;;;10.32;6.00;;;-8.90;99.90;;;;;;4398269;32;20065;-61
2022/03/11 09:42:36;;;;;;;10.20;7.43;;;-8.90;99.90;;;;;;4380419;32;20580;-60
2022/03/11 09:45:04;;;;;;;11.43;7.35;;;-8.90;99.90;;;;;;4392856;32;20077;-61
2022/03/11 09:47:31;;;;;;;10.27;6.65;;;-9.00;99.90;;;;;;4392395;32;20143;-60
2022/03/11 09:49:58;;;;;;;11.68;6.47;;;-8.90;99.90;;;;;;4393394;32;20078;-61
2022/03/11 09:52:25;;;;;;;13.10;7.45;;;-8.60;99.90;;;;;;4393776;32;20085;-61
2022/03/11 09:54:52;;;;;;;10.20;6.28;;;-8.50;99.90;;;;;;4392583;32;20162;-60
2022/03/11 09:57:24;;;;;;;8.68;5.37;;;-8.30;99.90;;;;;;4393476;32;20447;-62
2022/03/11 09:59:51;;;;;;;10.43;6.57;;;-8.00;99.90;;;;;;4392517;32;20135;-61
2022/03/11 10:02:18;;;;;;;11.95;7.93;;;-7.90;99.90;;;;;;4378725;32;20082;-61
2022/03/11 10:04:51;;;;;;;10.15;7.35;;;-8.00;99.90;;;;;;4393636;32;20100;-61
2022/03/11 10:07:28;;;;;;;12.00;6.47;;;-8.40;99.90;;;;;;4392334;32;20073;-61
2022/03/11 10:09:56;;;;;;;10.20;6.45;;;-7.90;99.90;;;;;;4366870;32;20167;-61
2022/03/11 10:12:26;;;;;;;11.25;6.65;;;-7.70;99.90;;;;;;4393119;32;20097;-61
2022/03/11 10:15:04;;;;;;;9.05;5.45;;;-7.80;99.90;;;;;;4391710;32;20084;-61
2022/03/11 10:17:39;;;;;;;8.73;6.28;;;-7.80;99.90;;;;;;4378892;32;20169;-61
2022/03/11 10:20:13;;;;;;;9.93;5.73;;;-7.90;99.90;;;;;;4392082;32;20444;-60
2022/03/11 10:22:44;;;;;;;12.05;6.43;;;-7.50;99.90;;;;;;4393163;32;20073;-60
2022/03/11 10:25:25;;;;;;;11.32;5.60;;;-7.50;99.90;;;;;;4379812;32;20089;-60
2022/03/11 10:28:01;;;;;;;7.87;5.07;;;-7.60;99.90;;;;;;4379619;32;20074;-61
2022/03/11 10:30:39;;;;;;;12.52;7.50;;;-7.60;99.90;;;;;;4391056;32;20500;-61
2022/03/11 10:33:13;;;;;;;8.93;6.10;;;-7.40;99.90;;;;;;4392239;32;20129;-61
2022/03/11 10:35:49;;;;;;;8.52;5.60;;;-7.50;99.90;;;;;;4391195;32;20074;-61
2022/03/11 10:38:17;;;;;;;8.97;5.83;;;-7.50;99.90;;;;;;4391824;32;20499;-60
2022/03/11 10:40:57;;;;;;;10.18;7.20;;;-7.00;99.90;;;;;;4391328;32;20168;-61
2022/03/11 10:43:32;;;;;;;11.45;6.75;;;-7.30;99.90;;;;;;4378634;32;20074;-60
2022/03/11 10:46:06;;;;;;;9.57;6.03;;;-6.80;99.90;;;;;;4391040;32;20084;-61
2022/03/11 10:48:47;;;;;;;9.98;6.15;;;-7.40;99.90;;;;;;4392718;32;20066;-61
2022/03/11 10:51:32;;;;;;;10.90;6.12;;;-7.50;99.90;;;;;;4393236;32;20090;-61
2022/03/11 10:54:01;;;;;;;10.30;6.20;;;-7.40;99.90;;;;;;4391452;32;20496;-62
2022/03/11 10:56:34;;;;;;;8.98;6.40;;;-7.40;99.90;;;;;;4392837;32;20065;-62
2022/03/11 10:59:05;;;;;;;9.73;6.12;;;-7.30;99.90;;;;;;4391601;32;20077;-60
2022/03/11 11:01:37;;;;;;;10.65;6.82;;;-7.40;99.90;;;;;;4391684;32;20070;-61
2022/03/11 11:04:07;;;;;;;10.80;6.87;;;-7.50;99.90;;;;;;4393728;32;20078;-62
2022/03/11 11:06:38;;;;;;;11.60;6.68;;;-7.50;99.90;;;;;;4391459;32;20170;-60
2022/03/11 11:09:07;;;;;;;10.18;5.60;;;-7.30;99.90;;;;;;4392506;32;20073;-60
2022/03/11 11:11:34;;;;;;;9.68;5.82;;;-7.20;99.90;;;;;;4403939;32;20086;-61
2022/03/11 11:14:05;;;;;;;10.73;5.97;;;-7.40;99.90;;;;;;4390611;32;20093;-60
2022/03/11 11:16:39;;;;;;;11.05;6.68;;;-7.10;99.90;;;;;;4390912;32;20451;-61
2022/03/11 11:19:19;;;;;;;9.43;6.47;;;-7.40;99.90;;;;;;4366339;32;20102;-60
2022/03/11 11:21:51;;;;;;;11.02;6.40;;;-7.10;99.90;;;;;;4390748;32;20136;-61
2022/03/11 11:24:21;;;;;;;9.13;5.97;;;-7.00;99.90;;;;;;4391566;32;20158;-61
2022/03/11 11:26:56;;;;;;;11.77;7.18;;;-7.10;99.90;;;;;;4391288;32;20514;-61
2022/03/11 11:29:26;;;;;;;8.73;5.60;;;-7.10;99.90;;;;;;4378003;32;20069;-61
2022/03/11 11:31:54;;;;;;;10.30;6.47;;;-7.00;99.90;;;;;;4390576;32;20105;-60
2022/03/11 11:34:30;;;;;;;9.38;6.82;;;-7.20;99.90;;;;;;4378545;32;20072;-61
2022/03/11 11:36:57;;;;;;;13.10;6.00;;;-7.20;99.90;;;;;;4390695;32;20077;-63
2022/03/11 11:39:26;;;;;;;10.07;7.47;;;-6.70;99.90;;;;;;4390678;32;20080;-62
2022/03/11 11:42:00;;;;;;;12.13;6.82;;;-7.00;99.90;;;;;;4390963;32;20085;-62
2022/03/11 11:44:37;;;;;;;11.68;7.30;;;-6.90;99.90;;;;;;4392000;32;20070;-62
2022/03/11 11:47:16;;;;;;;11.20;7.30;;;-7.00;99.90;;;;;;4392707;32;20168;-62
2022/03/11 11:49:47;;;;;;;7.72;4.78;;;-6.90;99.90;;;;;;4390843;32;20068;-62
2022/03/11 11:52:30;;;;;;;11.45;6.68;;;-6.80;99.90;;;;;;4390187;32;20070;-62
2022/03/11 11:55:19;;;;;;;9.50;5.87;;;-6.80;99.90;;;;;;4392193;32;20073;-62
2022/03/11 11:57:50;;;;;;;7.28;4.05;;;-6.70;99.90;;;;;;4391109;32;20082;-62
2022/03/11 12:00:37;;;;;;;8.88;5.50;;;-6.50;99.90;;;;;;4392150;32;20162;-62
2022/03/11 12:03:06;;;;;;;9.02;5.72;;;-6.70;99.90;;;;;;4391583;32;20111;-64
2022/03/11 12:05:44;;;;;;;10.52;6.43;;;-6.50;99.90;;;;;;4391621;32;20077;-62
2022/03/11 12:08:34;;;;;;;9.60;6.47;;;-6.70;99.90;;;;;;4391156;32;20074;-61
2022/03/11 12:11:01;;;;;;;10.75;7.50;;;-6.60;99.90;;;;;;4391825;32;20088;-62
2022/03/11 12:13:35;;;;;;;9.35;6.57;;;-6.80;99.90;;;;;;4391710;32;20077;-61
2022/03/11 12:16:03;;;;;;;9.98;7.20;;;-6.80;99.90;;;;;;4365759;32;20085;-62
2022/03/11 12:18:45;;;;;;;12.68;7.50;;;-6.70;99.90;;;;;;4392259;32;20508;-62
2022/03/11 12:21:28;;;;;;;15.02;7.15;;;-6.80;99.90;;;;;;4390003;32;20151;-61
2022/03/11 12:23:56;;;;;;;11.43;6.93;;;-6.40;99.90;;;;;;4390436;32;20178;-62
2022/03/11 12:26:36;;;;;;;11.90;6.07;;;-6.50;99.90;;;;;;4390007;32;20510;-62
2022/03/11 12:29:37;;;;;;;10.23;6.15;;;-6.60;99.90;;;;;;4391628;32;20082;-63
2022/03/11 12:32:08;;;;;;;9.02;6.00;;;-6.60;99.90;;;;;;4389687;32;20065;-62
2022/03/11 12:34:34;;;;;;;10.55;6.43;;;-6.70;99.90;;;;;;4377454;32;20459;-62
2022/03/11 12:37:01;;;;;;;13.13;8.10;;;-6.70;99.90;;;;;;4390025;32;20081;-61
2022/03/11 12:39:32;;;;;;;14.23;8.10;;;-6.60;99.90;;;;;;4391748;32;20158;-62